sensor_id;sensor_type;location;lat;lon;timestamp;P1;durP1;ratioP1;P2;durP2;ratioP2
27223;SDS011;14965;50.660;13.226;2023-02-15T00:00:36;23.77;;;11.35;;
27223;SDS011;14965;50.660;13.226;2023-02-15T00:03:02;24.90;;;11.18;;
27223;SDS011;14965;50.660;13.226;2023-02-15T00:05:29;24.15;;;11.10;;
27223;SDS011;14965;50.660;13.226;2023-02-15T00:07:55;25.00;;;10.20;;
27223;SDS011;14965;50.660;13.226;2023-02-15T00:10:21;21.02;;;10.23;;
27223;SDS011;14965;50.660;13.226;2023-02-15T00:12:47;21.83;;;9.40;;
27223;SDS011;14965;50.660;13.226;2023-02-15T00:15:13;22.52;;;10.27;;
27223;SDS011;14965;50.660;13.226;2023-02-15T00:17:40;20.48;;;8.82;;
27223;SDS011;14965;50.660;13.226;2023-02-15T00:20:06;17.95;;;8.05;;
27223;SDS011;14965;50.660;13.226;2023-02-15T00:22:33;20.33;;;8.45;;
27223;SDS011;14965;50.660;13.226;2023-02-15T00:24:59;16.55;;;7.75;;
27223;SDS011;14965;50.660;13.226;2023-02-15T00:27:25;18.80;;;8.25;;
27223;SDS011;14965;50.660;13.226;2023-02-15T00:29:51;19.25;;;7.97;;
27223;SDS011;14965;50.660;13.226;2023-02-15T00:32:16;17.42;;;8.25;;
27223;SDS011;14965;50.660;13.226;2023-02-15T00:34:44;16.88;;;7.57;;
27223;SDS011;14965;50.660;13.226;2023-02-15T00:37:09;17.30;;;7.57;;
27223;SDS011;14965;50.660;13.226;2023-02-15T00:39:35;17.75;;;7.88;;
27223;SDS011;14965;50.660;13.226;2023-02-15T00:42:01;16.10;;;7.20;;
27223;SDS011;14965;50.660;13.226;2023-02-15T00:44:27;16.73;;;7.28;;
27223;SDS011;14965;50.660;13.226;2023-02-15T00:46:53;18.75;;;7.43;;
27223;SDS011;14965;50.660;13.226;2023-02-15T00:49:19;19.63;;;8.18;;
27223;SDS011;14965;50.660;13.226;2023-02-15T00:51:46;17.05;;;7.43;;
27223;SDS011;14965;50.660;13.226;2023-02-15T00:54:12;17.70;;;7.22;;
27223;SDS011;14965;50.660;13.226;2023-02-15T00:56:37;20.05;;;7.65;;
27223;SDS011;14965;50.660;13.226;2023-02-15T00:59:03;22.20;;;8.05;;
27223;SDS011;14965;50.660;13.226;2023-02-15T01:01:29;16.58;;;7.75;;
27223;SDS011;14965;50.660;13.226;2023-02-15T01:03:55;17.65;;;8.02;;
27223;SDS011;14965;50.660;13.226;2023-02-15T01:06:21;15.93;;;7.50;;
27223;SDS011;14965;50.660;13.226;2023-02-15T01:08:48;16.60;;;7.45;;
27223;SDS011;14965;50.660;13.226;2023-02-15T01:11:15;17.73;;;7.30;;
27223;SDS011;14965;50.660;13.226;2023-02-15T01:13:43;20.25;;;7.95;;
27223;SDS011;14965;50.660;13.226;2023-02-15T01:16:08;19.83;;;8.00;;
27223;SDS011;14965;50.660;13.226;2023-02-15T01:18:34;18.48;;;7.22;;
27223;SDS011;14965;50.660;13.226;2023-02-15T01:21:08;19.35;;;7.40;;
27223;SDS011;14965;50.660;13.226;2023-02-15T01:23:36;17.88;;;6.35;;
27223;SDS011;14965;50.660;13.226;2023-02-15T01:26:03;17.25;;;6.80;;
27223;SDS011;14965;50.660;13.226;2023-02-15T01:28:29;13.93;;;6.70;;
27223;SDS011;14965;50.660;13.226;2023-02-15T01:30:56;18.40;;;7.30;;
27223;SDS011;14965;50.660;13.226;2023-02-15T01:33:22;16.08;;;7.07;;
27223;SDS011;14965;50.660;13.226;2023-02-15T01:35:47;18.30;;;7.15;;
27223;SDS011;14965;50.660;13.226;2023-02-15T01:38:13;17.33;;;6.80;;
27223;SDS011;14965;50.660;13.226;2023-02-15T01:40:39;15.85;;;7.00;;
27223;SDS011;14965;50.660;13.226;2023-02-15T01:43:10;14.98;;;5.88;;
27223;SDS011;14965;50.660;13.226;2023-02-15T01:45:37;18.40;;;7.78;;
27223;SDS011;14965;50.660;13.226;2023-02-15T01:48:05;19.63;;;6.53;;
27223;SDS011;14965;50.660;13.226;2023-02-15T01:50:43;15.77;;;6.18;;
27223;SDS011;14965;50.660;13.226;2023-02-15T01:53:15;13.70;;;6.13;;
27223;SDS011;14965;50.660;13.226;2023-02-15T01:55:50;13.90;;;5.93;;
27223;SDS011;14965;50.660;13.226;2023-02-15T01:58:22;14.63;;;6.13;;
27223;SDS011;14965;50.660;13.226;2023-02-15T02:00:51;15.27;;;5.82;;
27223;SDS011;14965;50.660;13.226;2023-02-15T02:03:18;21.23;;;6.13;;
27223;SDS011;14965;50.660;13.226;2023-02-15T02:05:59;16.58;;;6.03;;
27223;SDS011;14965;50.660;13.226;2023-02-15T02:08:26;13.18;;;5.50;;
27223;SDS011;14965;50.660;13.226;2023-02-15T02:10:53;17.88;;;5.68;;
27223;SDS011;14965;50.660;13.226;2023-02-15T02:13:18;17.55;;;6.00;;
27223;SDS011;14965;50.660;13.226;2023-02-15T02:15:47;14.90;;;6.03;;
27223;SDS011;14965;50.660;13.226;2023-02-15T02:18:25;13.13;;;5.63;;
27223;SDS011;14965;50.660;13.226;2023-02-15T02:21:16;19.10;;;6.45;;
27223;SDS011;14965;50.660;13.226;2023-02-15T02:24:41;14.65;;;6.22;;
27223;SDS011;14965;50.660;13.226;2023-02-15T02:27:45;14.93;;;5.63;;
27223;SDS011;14965;50.660;13.226;2023-02-15T02:30:26;14.90;;;5.82;;
27223;SDS011;14965;50.660;13.226;2023-02-15T02:33:29;14.45;;;5.32;;
27223;SDS011;14965;50.660;13.226;2023-02-15T02:36:14;16.75;;;5.43;;
27223;SDS011;14965;50.660;13.226;2023-02-15T02:38:52;14.57;;;5.75;;
27223;SDS011;14965;50.660;13.226;2023-02-15T02:41:37;15.18;;;4.95;;
27223;SDS011;14965;50.660;13.226;2023-02-15T02:44:16;12.70;;;5.45;;
27223;SDS011;14965;50.660;13.226;2023-02-15T02:46:54;16.35;;;5.30;;
27223;SDS011;14965;50.660;13.226;2023-02-15T02:49:31;13.73;;;5.28;;
27223;SDS011;14965;50.660;13.226;2023-02-15T02:52:00;14.10;;;5.07;;
27223;SDS011;14965;50.660;13.226;2023-02-15T02:54:28;15.00;;;4.82;;
27223;SDS011;14965;50.660;13.226;2023-02-15T02:56:58;14.27;;;5.32;;
27223;SDS011;14965;50.660;13.226;2023-02-15T02:59:29;13.98;;;4.88;;
27223;SDS011;14965;50.660;13.226;2023-02-15T03:02:02;13.10;;;5.15;;
27223;SDS011;14965;50.660;13.226;2023-02-15T03:04:37;14.10;;;5.32;;
27223;SDS011;14965;50.660;13.226;2023-02-15T03:07:11;17.73;;;5.22;;
27223;SDS011;14965;50.660;13.226;2023-02-15T03:09:44;15.40;;;5.22;;
27223;SDS011;14965;50.660;13.226;2023-02-15T03:12:16;17.05;;;6.00;;
27223;SDS011;14965;50.660;13.226;2023-02-15T03:14:48;14.07;;;5.00;;
27223;SDS011;14965;50.660;13.226;2023-02-15T03:17:18;11.60;;;4.65;;
27223;SDS011;14965;50.660;13.226;2023-02-15T03:19:50;11.50;;;5.28;;
27223;SDS011;14965;50.660;13.226;2023-02-15T03:22:21;13.45;;;5.18;;
27223;SDS011;14965;50.660;13.226;2023-02-15T03:24:55;14.88;;;5.45;;
27223;SDS011;14965;50.660;13.226;2023-02-15T03:27:33;13.35;;;5.00;;
27223;SDS011;14965;50.660;13.226;2023-02-15T03:30:06;14.90;;;5.13;;
27223;SDS011;14965;50.660;13.226;2023-02-15T03:32:35;13.18;;;5.22;;
27223;SDS011;14965;50.660;13.226;2023-02-15T03:35:06;16.88;;;5.25;;
27223;SDS011;14965;50.660;13.226;2023-02-15T03:37:34;14.98;;;5.22;;
27223;SDS011;14965;50.660;13.226;2023-02-15T03:40:07;16.13;;;5.15;;
27223;SDS011;14965;50.660;13.226;2023-02-15T03:42:43;14.48;;;5.30;;
27223;SDS011;14965;50.660;13.226;2023-02-15T03:45:15;17.48;;;5.80;;
27223;SDS011;14965;50.660;13.226;2023-02-15T03:47:50;15.93;;;5.50;;
27223;SDS011;14965;50.660;13.226;2023-02-15T03:50:21;19.63;;;6.70;;
27223;SDS011;14965;50.660;13.226;2023-02-15T03:52:53;18.50;;;6.93;;
27223;SDS011;14965;50.660;13.226;2023-02-15T03:57:48;16.05;;;6.93;;
27223;SDS011;14965;50.660;13.226;2023-02-15T04:00:16;21.42;;;7.05;;
27223;SDS011;14965;50.660;13.226;2023-02-15T04:02:50;18.27;;;6.07;;
27223;SDS011;14965;50.660;13.226;2023-02-15T04:05:47;14.43;;;5.90;;
27223;SDS011;14965;50.660;13.226;2023-02-15T04:08:13;15.30;;;7.03;;
27223;SDS011;14965;50.660;13.226;2023-02-15T04:10:39;20.95;;;7.88;;
27223;SDS011;14965;50.660;13.226;2023-02-15T04:13:05;19.13;;;6.90;;
27223;SDS011;14965;50.660;13.226;2023-02-15T04:15:31;17.67;;;6.00;;
27223;SDS011;14965;50.660;13.226;2023-02-15T04:17:57;16.63;;;6.07;;
27223;SDS011;14965;50.660;13.226;2023-02-15T04:20:23;19.25;;;5.97;;
27223;SDS011;14965;50.660;13.226;2023-02-15T04:22:51;14.05;;;5.90;;
27223;SDS011;14965;50.660;13.226;2023-02-15T04:25:17;16.55;;;6.60;;
27223;SDS011;14965;50.660;13.226;2023-02-15T04:27:46;18.08;;;5.80;;
27223;SDS011;14965;50.660;13.226;2023-02-15T04:30:15;16.08;;;6.63;;
27223;SDS011;14965;50.660;13.226;2023-02-15T04:32:44;14.07;;;5.38;;
27223;SDS011;14965;50.660;13.226;2023-02-15T04:35:10;17.83;;;6.18;;
27223;SDS011;14965;50.660;13.226;2023-02-15T04:37:37;15.82;;;5.10;;
27223;SDS011;14965;50.660;13.226;2023-02-15T04:40:06;15.20;;;5.40;;
27223;SDS011;14965;50.660;13.226;2023-02-15T04:42:34;17.70;;;5.30;;
27223;SDS011;14965;50.660;13.226;2023-02-15T04:44:59;14.63;;;5.50;;
27223;SDS011;14965;50.660;13.226;2023-02-15T04:47:26;15.85;;;5.43;;
27223;SDS011;14965;50.660;13.226;2023-02-15T04:49:52;17.20;;;5.40;;
27223;SDS011;14965;50.660;13.226;2023-02-15T04:52:18;16.58;;;5.43;;
27223;SDS011;14965;50.660;13.226;2023-02-15T04:54:44;12.75;;;4.85;;
27223;SDS011;14965;50.660;13.226;2023-02-15T04:57:11;15.20;;;5.38;;
27223;SDS011;14965;50.660;13.226;2023-02-15T04:59:37;16.83;;;6.00;;
27223;SDS011;14965;50.660;13.226;2023-02-15T05:02:03;16.58;;;5.70;;
27223;SDS011;14965;50.660;13.226;2023-02-15T05:04:29;15.07;;;5.32;;
27223;SDS011;14965;50.660;13.226;2023-02-15T05:06:55;19.42;;;5.75;;
27223;SDS011;14965;50.660;13.226;2023-02-15T05:09:21;14.90;;;5.43;;
27223;SDS011;14965;50.660;13.226;2023-02-15T05:11:47;19.60;;;6.07;;
27223;SDS011;14965;50.660;13.226;2023-02-15T05:14:14;15.27;;;6.10;;
27223;SDS011;14965;50.660;13.226;2023-02-15T05:16:40;17.42;;;5.95;;
27223;SDS011;14965;50.660;13.226;2023-02-15T05:19:06;18.38;;;5.82;;
27223;SDS011;14965;50.660;13.226;2023-02-15T05:21:32;15.63;;;5.68;;
27223;SDS011;14965;50.660;13.226;2023-02-15T05:23:58;18.17;;;6.15;;
27223;SDS011;14965;50.660;13.226;2023-02-15T05:26:25;25.88;;;7.55;;
27223;SDS011;14965;50.660;13.226;2023-02-15T05:28:51;22.55;;;7.78;;
27223;SDS011;14965;50.660;13.226;2023-02-15T05:31:18;24.27;;;7.82;;
27223;SDS011;14965;50.660;13.226;2023-02-15T05:33:45;23.02;;;8.38;;
27223;SDS011;14965;50.660;13.226;2023-02-15T05:36:11;24.13;;;7.97;;
27223;SDS011;14965;50.660;13.226;2023-02-15T05:38:38;24.67;;;8.60;;
27223;SDS011;14965;50.660;13.226;2023-02-15T05:41:05;24.50;;;9.32;;
27223;SDS011;14965;50.660;13.226;2023-02-15T05:43:32;23.95;;;8.80;;
27223;SDS011;14965;50.660;13.226;2023-02-15T05:45:58;25.40;;;8.65;;
27223;SDS011;14965;50.660;13.226;2023-02-15T05:48:27;25.58;;;8.88;;
27223;SDS011;14965;50.660;13.226;2023-02-15T05:50:56;18.42;;;7.75;;
27223;SDS011;14965;50.660;13.226;2023-02-15T05:53:23;22.23;;;7.60;;
27223;SDS011;14965;50.660;13.226;2023-02-15T05:55:49;22.65;;;8.23;;
27223;SDS011;14965;50.660;13.226;2023-02-15T05:58:15;18.13;;;7.15;;
27223;SDS011;14965;50.660;13.226;2023-02-15T06:00:41;21.60;;;7.85;;
27223;SDS011;14965;50.660;13.226;2023-02-15T06:03:07;19.83;;;7.45;;
27223;SDS011;14965;50.660;13.226;2023-02-15T06:05:34;22.40;;;7.78;;
27223;SDS011;14965;50.660;13.226;2023-02-15T06:08:00;20.98;;;7.07;;
27223;SDS011;14965;50.660;13.226;2023-02-15T06:10:26;19.20;;;7.03;;
27223;SDS011;14965;50.660;13.226;2023-02-15T06:12:51;17.33;;;6.80;;
27223;SDS011;14965;50.660;13.226;2023-02-15T06:15:17;15.90;;;6.10;;
27223;SDS011;14965;50.660;13.226;2023-02-15T06:17:43;15.25;;;6.20;;
27223;SDS011;14965;50.660;13.226;2023-02-15T06:20:09;16.98;;;6.13;;
27223;SDS011;14965;50.660;13.226;2023-02-15T06:22:37;17.45;;;6.90;;
27223;SDS011;14965;50.660;13.226;2023-02-15T06:25:03;14.70;;;5.95;;
27223;SDS011;14965;50.660;13.226;2023-02-15T06:27:30;17.35;;;7.47;;
27223;SDS011;14965;50.660;13.226;2023-02-15T06:29:56;16.77;;;7.07;;
27223;SDS011;14965;50.660;13.226;2023-02-15T06:32:22;18.60;;;8.63;;
27223;SDS011;14965;50.660;13.226;2023-02-15T06:34:47;14.45;;;6.93;;
27223;SDS011;14965;50.660;13.226;2023-02-15T06:37:13;15.88;;;6.20;;
27223;SDS011;14965;50.660;13.226;2023-02-15T06:39:40;16.13;;;5.25;;
27223;SDS011;14965;50.660;13.226;2023-02-15T06:42:06;11.93;;;4.78;;
27223;SDS011;14965;50.660;13.226;2023-02-15T06:44:32;12.48;;;5.18;;
27223;SDS011;14965;50.660;13.226;2023-02-15T06:46:58;10.93;;;4.60;;
27223;SDS011;14965;50.660;13.226;2023-02-15T06:49:24;12.57;;;5.18;;
27223;SDS011;14965;50.660;13.226;2023-02-15T06:51:49;13.63;;;5.13;;
27223;SDS011;14965;50.660;13.226;2023-02-15T06:54:15;15.70;;;5.90;;
27223;SDS011;14965;50.660;13.226;2023-02-15T06:56:43;16.17;;;5.20;;
27223;SDS011;14965;50.660;13.226;2023-02-15T06:59:09;12.00;;;4.88;;
27223;SDS011;14965;50.660;13.226;2023-02-15T07:01:35;14.32;;;5.75;;
27223;SDS011;14965;50.660;13.226;2023-02-15T07:04:00;15.63;;;6.15;;
27223;SDS011;14965;50.660;13.226;2023-02-15T07:06:26;15.80;;;5.82;;
27223;SDS011;14965;50.660;13.226;2023-02-15T07:08:56;12.98;;;5.85;;
27223;SDS011;14965;50.660;13.226;2023-02-15T07:11:22;15.45;;;6.63;;
27223;SDS011;14965;50.660;13.226;2023-02-15T07:13:49;21.90;;;7.60;;
27223;SDS011;14965;50.660;13.226;2023-02-15T07:16:16;16.13;;;7.22;;
27223;SDS011;14965;50.660;13.226;2023-02-15T07:18:41;15.63;;;7.00;;
27223;SDS011;14965;50.660;13.226;2023-02-15T07:21:07;12.13;;;5.65;;
27223;SDS011;14965;50.660;13.226;2023-02-15T07:23:34;8.82;;;4.93;;
27223;SDS011;14965;50.660;13.226;2023-02-15T07:26:00;14.90;;;5.30;;
27223;SDS011;14965;50.660;13.226;2023-02-15T07:28:26;11.82;;;5.13;;
27223;SDS011;14965;50.660;13.226;2023-02-15T07:30:53;11.02;;;4.78;;
27223;SDS011;14965;50.660;13.226;2023-02-15T07:33:19;11.60;;;5.15;;
27223;SDS011;14965;50.660;13.226;2023-02-15T07:35:48;12.07;;;5.25;;
27223;SDS011;14965;50.660;13.226;2023-02-15T07:38:15;9.45;;;5.13;;
27223;SDS011;14965;50.660;13.226;2023-02-15T07:40:41;9.25;;;4.55;;
27223;SDS011;14965;50.660;13.226;2023-02-15T07:43:07;10.23;;;4.78;;
27223;SDS011;14965;50.660;13.226;2023-02-15T07:45:33;14.68;;;5.13;;
27223;SDS011;14965;50.660;13.226;2023-02-15T07:48:01;8.18;;;4.10;;
27223;SDS011;14965;50.660;13.226;2023-02-15T07:50:27;9.73;;;3.95;;
27223;SDS011;14965;50.660;13.226;2023-02-15T07:52:54;11.70;;;4.72;;
27223;SDS011;14965;50.660;13.226;2023-02-15T07:55:20;10.48;;;4.35;;
27223;SDS011;14965;50.660;13.226;2023-02-15T07:57:46;8.95;;;4.78;;
27223;SDS011;14965;50.660;13.226;2023-02-15T08:00:14;9.73;;;5.30;;
27223;SDS011;14965;50.660;13.226;2023-02-15T08:02:42;11.87;;;5.23;;
27223;SDS011;14965;50.660;13.226;2023-02-15T08:05:15;11.38;;;6.13;;
27223;SDS011;14965;50.660;13.226;2023-02-15T08:07:41;11.98;;;5.80;;
27223;SDS011;14965;50.660;13.226;2023-02-15T08:10:07;13.02;;;6.00;;
27223;SDS011;14965;50.660;13.226;2023-02-15T08:12:33;14.55;;;5.97;;
27223;SDS011;14965;50.660;13.226;2023-02-15T08:14:59;16.33;;;6.43;;
27223;SDS011;14965;50.660;13.226;2023-02-15T08:17:25;13.27;;;6.85;;
27223;SDS011;14965;50.660;13.226;2023-02-15T08:19:51;14.30;;;6.95;;
27223;SDS011;14965;50.660;13.226;2023-02-15T08:22:18;15.10;;;7.93;;
27223;SDS011;14965;50.660;13.226;2023-02-15T08:24:44;15.65;;;9.27;;
27223;SDS011;14965;50.660;13.226;2023-02-15T08:27:10;14.43;;;7.97;;
27223;SDS011;14965;50.660;13.226;2023-02-15T08:29:36;14.23;;;7.53;;
27223;SDS011;14965;50.660;13.226;2023-02-15T08:32:04;13.02;;;7.72;;
27223;SDS011;14965;50.660;13.226;2023-02-15T08:34:35;12.82;;;6.50;;
27223;SDS011;14965;50.660;13.226;2023-02-15T08:37:07;11.70;;;6.10;;
27223;SDS011;14965;50.660;13.226;2023-02-15T08:39:35;12.00;;;6.57;;
27223;SDS011;14965;50.660;13.226;2023-02-15T08:42:01;14.98;;;7.63;;
27223;SDS011;14965;50.660;13.226;2023-02-15T08:44:27;15.30;;;8.23;;
27223;SDS011;14965;50.660;13.226;2023-02-15T08:46:53;13.32;;;8.57;;
27223;SDS011;14965;50.660;13.226;2023-02-15T08:49:19;12.93;;;7.50;;
27223;SDS011;14965;50.660;13.226;2023-02-15T08:51:46;14.10;;;7.38;;
27223;SDS011;14965;50.660;13.226;2023-02-15T08:54:15;15.43;;;7.67;;
27223;SDS011;14965;50.660;13.226;2023-02-15T08:56:44;14.43;;;7.53;;
27223;SDS011;14965;50.660;13.226;2023-02-15T08:59:12;11.73;;;7.43;;
27223;SDS011;14965;50.660;13.226;2023-02-15T09:01:41;15.95;;;7.68;;
27223;SDS011;14965;50.660;13.226;2023-02-15T09:04:09;14.55;;;8.00;;
27223;SDS011;14965;50.660;13.226;2023-02-15T09:06:35;16.98;;;7.53;;
27223;SDS011;14965;50.660;13.226;2023-02-15T09:09:02;15.38;;;8.32;;
27223;SDS011;14965;50.660;13.226;2023-02-15T09:11:29;15.13;;;7.40;;
27223;SDS011;14965;50.660;13.226;2023-02-15T09:14:02;12.65;;;7.35;;
27223;SDS011;14965;50.660;13.226;2023-02-15T09:16:32;13.23;;;6.80;;
27223;SDS011;14965;50.660;13.226;2023-02-15T09:18:59;12.48;;;6.82;;
27223;SDS011;14965;50.660;13.226;2023-02-15T09:21:26;13.05;;;6.53;;
27223;SDS011;14965;50.660;13.226;2023-02-15T09:23:55;15.23;;;7.35;;
27223;SDS011;14965;50.660;13.226;2023-02-15T09:26:24;19.98;;;11.18;;
27223;SDS011;14965;50.660;13.226;2023-02-15T09:28:52;17.40;;;9.33;;
27223;SDS011;14965;50.660;13.226;2023-02-15T09:31:22;16.55;;;8.40;;
27223;SDS011;14965;50.660;13.226;2023-02-15T09:33:50;11.90;;;6.55;;
27223;SDS011;14965;50.660;13.226;2023-02-15T09:36:17;11.75;;;6.70;;
27223;SDS011;14965;50.660;13.226;2023-02-15T09:41:20;17.70;;;10.25;;
27223;SDS011;14965;50.660;13.226;2023-02-15T09:44:12;14.77;;;7.93;;
27223;SDS011;14965;50.660;13.226;2023-02-15T09:46:59;10.30;;;5.28;;
27223;SDS011;14965;50.660;13.226;2023-02-15T09:49:45;7.43;;;4.10;;
27223;SDS011;14965;50.660;13.226;2023-02-15T09:52:32;7.93;;;4.07;;
27223;SDS011;14965;50.660;13.226;2023-02-15T09:55:21;6.25;;;4.00;;
27223;SDS011;14965;50.660;13.226;2023-02-15T09:58:12;9.57;;;5.30;;
27223;SDS011;14965;50.660;13.226;2023-02-15T10:00:55;10.23;;;5.90;;
27223;SDS011;14965;50.660;13.226;2023-02-15T10:06:50;10.32;;;6.05;;
27223;SDS011;14965;50.660;13.226;2023-02-15T10:13:08;15.23;;;7.93;;
27223;SDS011;14965;50.660;13.226;2023-02-15T10:17:40;14.90;;;7.47;;
27223;SDS011;14965;50.660;13.226;2023-02-15T10:35:57;17.83;;;9.20;;
27223;SDS011;14965;50.660;13.226;2023-02-15T10:42:15;14.93;;;10.45;;
27223;SDS011;14965;50.660;13.226;2023-02-15T10:49:48;9.73;;;5.70;;
27223;SDS011;14965;50.660;13.226;2023-02-15T10:57:12;11.40;;;6.35;;
27223;SDS011;14965;50.660;13.226;2023-02-15T11:08:11;8.80;;;5.25;;
27223;SDS011;14965;50.660;13.226;2023-02-15T11:14:43;11.70;;;5.53;;
27223;SDS011;14965;50.660;13.226;2023-02-15T11:25:33;11.23;;;5.57;;
27223;SDS011;14965;50.660;13.226;2023-02-15T11:28:52;12.40;;;5.32;;
27223;SDS011;14965;50.660;13.226;2023-02-15T11:39:58;10.80;;;5.10;;
27223;SDS011;14965;50.660;13.226;2023-02-15T11:42:53;7.18;;;4.82;;
27223;SDS011;14965;50.660;13.226;2023-02-15T11:45:34;9.43;;;5.20;;
27223;SDS011;14965;50.660;13.226;2023-02-15T11:48:11;9.20;;;5.60;;
27223;SDS011;14965;50.660;13.226;2023-02-15T11:50:41;8.70;;;4.78;;
27223;SDS011;14965;50.660;13.226;2023-02-15T11:56:42;9.80;;;5.25;;
27223;SDS011;14965;50.660;13.226;2023-02-15T11:59:57;8.32;;;4.60;;
27223;SDS011;14965;50.660;13.226;2023-02-15T12:02:52;6.55;;;4.47;;
27223;SDS011;14965;50.660;13.226;2023-02-15T12:05:27;9.07;;;4.57;;
27223;SDS011;14965;50.660;13.226;2023-02-15T12:08:01;6.20;;;4.10;;
27223;SDS011;14965;50.660;13.226;2023-02-15T12:10:45;7.40;;;4.18;;
27223;SDS011;14965;50.660;13.226;2023-02-15T12:13:38;6.82;;;4.20;;
27223;SDS011;14965;50.660;13.226;2023-02-15T12:17:32;5.97;;;4.15;;
27223;SDS011;14965;50.660;13.226;2023-02-15T12:24:28;10.57;;;4.55;;
27223;SDS011;14965;50.660;13.226;2023-02-15T12:27:32;8.60;;;4.65;;
27223;SDS011;14965;50.660;13.226;2023-02-15T12:33:51;6.45;;;4.32;;
27223;SDS011;14965;50.660;13.226;2023-02-15T12:53:06;5.90;;;4.20;;
27223;SDS011;14965;50.660;13.226;2023-02-15T12:56:41;7.97;;;4.10;;
27223;SDS011;14965;50.660;13.226;2023-02-15T13:00:32;6.43;;;4.50;;
27223;SDS011;14965;50.660;13.226;2023-02-15T13:03:33;6.78;;;4.20;;
27223;SDS011;14965;50.660;13.226;2023-02-15T13:07:09;5.80;;;3.72;;
27223;SDS011;14965;50.660;13.226;2023-02-15T13:13:37;5.78;;;3.30;;
27223;SDS011;14965;50.660;13.226;2023-02-15T13:20:28;5.07;;;3.28;;
27223;SDS011;14965;50.660;13.226;2023-02-15T13:23:29;8.27;;;3.83;;
27223;SDS011;14965;50.660;13.226;2023-02-15T13:26:26;6.60;;;3.70;;
27223;SDS011;14965;50.660;13.226;2023-02-15T13:36:33;6.18;;;3.50;;
27223;SDS011;14965;50.660;13.226;2023-02-15T13:43:46;8.13;;;3.35;;
27223;SDS011;14965;50.660;13.226;2023-02-15T13:53:40;5.03;;;2.60;;
27223;SDS011;14965;50.660;13.226;2023-02-15T14:11:35;4.88;;;2.80;;
27223;SDS011;14965;50.660;13.226;2023-02-15T14:14:17;5.38;;;2.97;;
27223;SDS011;14965;50.660;13.226;2023-02-15T14:17:01;3.60;;;2.65;;
27223;SDS011;14965;50.660;13.226;2023-02-15T14:19:43;4.55;;;2.85;;
27223;SDS011;14965;50.660;13.226;2023-02-15T14:22:17;5.68;;;2.90;;
27223;SDS011;14965;50.660;13.226;2023-02-15T14:24:55;14.15;;;9.00;;
27223;SDS011;14965;50.660;13.226;2023-02-15T14:27:43;10.05;;;6.22;;
27223;SDS011;14965;50.660;13.226;2023-02-15T14:30:22;6.53;;;3.67;;
27223;SDS011;14965;50.660;13.226;2023-02-15T14:32:54;4.95;;;2.72;;
27223;SDS011;14965;50.660;13.226;2023-02-15T14:35:27;7.05;;;3.13;;
27223;SDS011;14965;50.660;13.226;2023-02-15T14:37:57;5.13;;;3.17;;
27223;SDS011;14965;50.660;13.226;2023-02-15T14:40:34;6.28;;;3.33;;
27223;SDS011;14965;50.660;13.226;2023-02-15T14:43:15;8.10;;;4.40;;
27223;SDS011;14965;50.660;13.226;2023-02-15T14:45:55;12.23;;;7.18;;
27223;SDS011;14965;50.660;13.226;2023-02-15T14:48:30;13.65;;;8.48;;
27223;SDS011;14965;50.660;13.226;2023-02-15T14:51:02;7.30;;;4.10;;
27223;SDS011;14965;50.660;13.226;2023-02-15T14:53:35;13.52;;;8.00;;
27223;SDS011;14965;50.660;13.226;2023-02-15T14:56:13;9.15;;;5.10;;
27223;SDS011;14965;50.660;13.226;2023-02-15T14:59:12;8.27;;;4.20;;
27223;SDS011;14965;50.660;13.226;2023-02-15T15:01:50;18.60;;;10.15;;
27223;SDS011;14965;50.660;13.226;2023-02-15T15:06:57;6.72;;;3.63;;
27223;SDS011;14965;50.660;13.226;2023-02-15T15:09:39;7.50;;;4.22;;
27223;SDS011;14965;50.660;13.226;2023-02-15T15:12:35;6.03;;;3.58;;
27223;SDS011;14965;50.660;13.226;2023-02-15T15:15:05;6.13;;;4.00;;
27223;SDS011;14965;50.660;13.226;2023-02-15T15:20:40;7.03;;;3.70;;
27223;SDS011;14965;50.660;13.226;2023-02-15T15:28:58;8.70;;;4.10;;
27223;SDS011;14965;50.660;13.226;2023-02-15T15:34:24;5.95;;;3.65;;
27223;SDS011;14965;50.660;13.226;2023-02-15T15:40:57;7.47;;;4.03;;
27223;SDS011;14965;50.660;13.226;2023-02-15T15:47:10;6.68;;;4.10;;
27223;SDS011;14965;50.660;13.226;2023-02-15T15:49:59;9.43;;;5.60;;
27223;SDS011;14965;50.660;13.226;2023-02-15T15:52:26;12.48;;;6.60;;
27223;SDS011;14965;50.660;13.226;2023-02-15T15:54:55;11.30;;;6.68;;
27223;SDS011;14965;50.660;13.226;2023-02-15T15:57:29;14.93;;;6.57;;
27223;SDS011;14965;50.660;13.226;2023-02-15T16:00:00;13.23;;;8.15;;
27223;SDS011;14965;50.660;13.226;2023-02-15T16:02:29;17.25;;;9.85;;
27223;SDS011;14965;50.660;13.226;2023-02-15T16:05:04;19.92;;;10.82;;
27223;SDS011;14965;50.660;13.226;2023-02-15T16:07:32;15.82;;;9.73;;
27223;SDS011;14965;50.660;13.226;2023-02-15T16:09:59;17.10;;;9.00;;
27223;SDS011;14965;50.660;13.226;2023-02-15T16:12:30;14.82;;;8.27;;
27223;SDS011;14965;50.660;13.226;2023-02-15T16:15:00;19.17;;;8.80;;
27223;SDS011;14965;50.660;13.226;2023-02-15T16:17:30;18.48;;;9.50;;
27223;SDS011;14965;50.660;13.226;2023-02-15T16:20:00;16.55;;;9.15;;
27223;SDS011;14965;50.660;13.226;2023-02-15T16:22:37;17.15;;;9.23;;
27223;SDS011;14965;50.660;13.226;2023-02-15T16:28:05;36.10;;;14.82;;
27223;SDS011;14965;50.660;13.226;2023-02-15T16:30:33;38.25;;;15.85;;
27223;SDS011;14965;50.660;13.226;2023-02-15T16:33:06;60.08;;;24.00;;
27223;SDS011;14965;50.660;13.226;2023-02-15T16:35:35;55.25;;;23.60;;
27223;SDS011;14965;50.660;13.226;2023-02-15T16:38:03;67.65;;;28.85;;
27223;SDS011;14965;50.660;13.226;2023-02-15T16:40:46;57.75;;;25.77;;
27223;SDS011;14965;50.660;13.226;2023-02-15T16:43:18;45.20;;;19.75;;
27223;SDS011;14965;50.660;13.226;2023-02-15T16:48:28;27.50;;;13.98;;
27223;SDS011;14965;50.660;13.226;2023-02-15T16:50:54;29.38;;;13.30;;
27223;SDS011;14965;50.660;13.226;2023-02-15T16:53:23;25.97;;;12.37;;
27223;SDS011;14965;50.660;13.226;2023-02-15T16:55:52;24.90;;;12.77;;
27223;SDS011;14965;50.660;13.226;2023-02-15T16:58:25;27.08;;;13.73;;
27223;SDS011;14965;50.660;13.226;2023-02-15T17:00:57;28.83;;;14.75;;
27223;SDS011;14965;50.660;13.226;2023-02-15T17:03:26;38.50;;;19.33;;
27223;SDS011;14965;50.660;13.226;2023-02-15T17:05:55;36.40;;;19.58;;
27223;SDS011;14965;50.660;13.226;2023-02-15T17:08:27;50.90;;;25.00;;
27223;SDS011;14965;50.660;13.226;2023-02-15T17:11:10;37.20;;;19.58;;
27223;SDS011;14965;50.660;13.226;2023-02-15T17:13:42;40.72;;;19.20;;
27223;SDS011;14965;50.660;13.226;2023-02-15T17:16:43;52.28;;;24.58;;
27223;SDS011;14965;50.660;13.226;2023-02-15T17:19:13;50.65;;;24.40;;
27223;SDS011;14965;50.660;13.226;2023-02-15T17:21:46;51.60;;;23.75;;
27223;SDS011;14965;50.660;13.226;2023-02-15T17:24:17;47.95;;;24.77;;
27223;SDS011;14965;50.660;13.226;2023-02-15T17:26:51;36.95;;;18.98;;
27223;SDS011;14965;50.660;13.226;2023-02-15T17:29:29;39.10;;;21.92;;
27223;SDS011;14965;50.660;13.226;2023-02-15T17:32:01;34.75;;;18.15;;
27223;SDS011;14965;50.660;13.226;2023-02-15T17:34:42;35.28;;;18.42;;
27223;SDS011;14965;50.660;13.226;2023-02-15T17:37:23;30.10;;;16.17;;
27223;SDS011;14965;50.660;13.226;2023-02-15T17:39:54;30.42;;;16.65;;
27223;SDS011;14965;50.660;13.226;2023-02-15T17:42:21;39.42;;;22.15;;
27223;SDS011;14965;50.660;13.226;2023-02-15T17:44:49;51.50;;;25.92;;